sensor_id;sensor_type;location;lat;lon;timestamp;P1;durP1;ratioP1;P2;durP2;ratioP2
74538;SDS011;66042;51.090;-115.340;2023-06-14T00:01:49;3.30;;;1.40;;
74538;SDS011;66042;51.090;-115.340;2023-06-14T00:04:16;6.00;;;1.20;;
74538;SDS011;66042;51.090;-115.340;2023-06-14T00:06:44;5.90;;;1.30;;
74538;SDS011;66042;51.090;-115.340;2023-06-14T00:09:14;5.00;;;1.30;;
74538;SDS011;66042;51.090;-115.340;2023-06-14T00:11:44;4.70;;;1.60;;
74538;SDS011;66042;51.090;-115.340;2023-06-14T00:14:29;4.90;;;1.60;;
74538;SDS011;66042;51.090;-115.340;2023-06-14T00:16:56;3.50;;;1.60;;
74538;SDS011;66042;51.090;-115.340;2023-06-14T00:19:25;2.60;;;1.40;;
74538;SDS011;66042;51.090;-115.340;2023-06-14T00:22:10;3.70;;;1.70;;
74538;SDS011;66042;51.090;-115.340;2023-06-14T00:24:37;5.30;;;1.30;;
74538;SDS011;66042;51.090;-115.340;2023-06-14T00:27:22;3.00;;;1.60;;
74538;SDS011;66042;51.090;-115.340;2023-06-14T00:30:10;3.00;;;1.60;;
74538;SDS011;66042;51.090;-115.340;2023-06-14T00:33:15;2.80;;;1.50;;
74538;SDS011;66042;51.090;-115.340;2023-06-14T00:36:00;4.70;;;1.60;;
74538;SDS011;66042;51.090;-115.340;2023-06-14T00:38:27;4.30;;;1.10;;
74538;SDS011;66042;51.090;-115.340;2023-06-14T00:40:54;3.80;;;1.60;;
74538;SDS011;66042;51.090;-115.340;2023-06-14T00:43:22;2.30;;;1.50;;
74538;SDS011;66042;51.090;-115.340;2023-06-14T00:46:07;4.50;;;1.30;;
74538;SDS011;66042;51.090;-115.340;2023-06-14T00:51:21;4.70;;;1.30;;
74538;SDS011;66042;51.090;-115.340;2023-06-14T00:53:48;2.30;;;1.20;;
74538;SDS011;66042;51.090;-115.340;2023-06-14T00:56:16;2.40;;;1.40;;
74538;SDS011;66042;51.090;-115.340;2023-06-14T00:59:03;2.50;;;1.30;;
74538;SDS011;66042;51.090;-115.340;2023-06-14T01:01:32;2.40;;;1.20;;
74538;SDS011;66042;51.090;-115.340;2023-06-14T01:04:17;2.70;;;1.10;;
74538;SDS011;66042;51.090;-115.340;2023-06-14T01:06:59;5.00;;;1.40;;
74538;SDS011;66042;51.090;-115.340;2023-06-14T01:10:17;3.20;;;1.20;;
74538;SDS011;66042;51.090;-115.340;2023-06-14T01:13:15;2.20;;;1.00;;
74538;SDS011;66042;51.090;-115.340;2023-06-14T01:15:50;3.40;;;1.20;;
74538;SDS011;66042;51.090;-115.340;2023-06-14T01:18:18;3.40;;;1.00;;
74538;SDS011;66042;51.090;-115.340;2023-06-14T01:20:47;2.50;;;1.00;;
74538;SDS011;66042;51.090;-115.340;2023-06-14T01:23:22;2.10;;;0.80;;
74538;SDS011;66042;51.090;-115.340;2023-06-14T01:25:50;2.30;;;1.20;;
74538;SDS011;66042;51.090;-115.340;2023-06-14T01:28:21;2.80;;;1.20;;
74538;SDS011;66042;51.090;-115.340;2023-06-14T01:30:54;3.30;;;1.10;;
74538;SDS011;66042;51.090;-115.340;2023-06-14T01:33:26;2.40;;;1.20;;
74538;SDS011;66042;51.090;-115.340;2023-06-14T01:35:55;3.10;;;1.20;;
74538;SDS011;66042;51.090;-115.340;2023-06-14T01:38:26;3.00;;;1.10;;
74538;SDS011;66042;51.090;-115.340;2023-06-14T01:40:57;3.10;;;1.30;;
74538;SDS011;66042;51.090;-115.340;2023-06-14T01:43:26;2.60;;;0.90;;
74538;SDS011;66042;51.090;-115.340;2023-06-14T01:45:57;2.20;;;1.10;;
74538;SDS011;66042;51.090;-115.340;2023-06-14T01:48:42;2.70;;;1.00;;
74538;SDS011;66042;51.090;-115.340;2023-06-14T01:51:10;1.90;;;0.90;;
74538;SDS011;66042;51.090;-115.340;2023-06-14T01:53:55;1.50;;;0.80;;
74538;SDS011;66042;51.090;-115.340;2023-06-14T01:56:23;1.40;;;0.50;;
74538;SDS011;66042;51.090;-115.340;2023-06-14T01:58:50;1.40;;;0.70;;
74538;SDS011;66042;51.090;-115.340;2023-06-14T02:01:18;2.60;;;0.80;;
74538;SDS011;66042;51.090;-115.340;2023-06-14T02:03:47;1.50;;;0.50;;
74538;SDS011;66042;51.090;-115.340;2023-06-14T02:06:15;1.70;;;0.60;;
74538;SDS011;66042;51.090;-115.340;2023-06-14T02:08:42;0.90;;;0.40;;
74538;SDS011;66042;51.090;-115.340;2023-06-14T02:11:09;2.20;;;0.90;;
74538;SDS011;66042;51.090;-115.340;2023-06-14T02:13:36;2.20;;;1.10;;
74538;SDS011;66042;51.090;-115.340;2023-06-14T02:16:03;2.50;;;1.00;;
74538;SDS011;66042;51.090;-115.340;2023-06-14T02:18:48;2.40;;;0.70;;
74538;SDS011;66042;51.090;-115.340;2023-06-14T02:21:16;2.30;;;0.80;;
74538;SDS011;66042;51.090;-115.340;2023-06-14T02:23:44;1.70;;;0.70;;
74538;SDS011;66042;51.090;-115.340;2023-06-14T02:26:11;1.80;;;0.80;;
74538;SDS011;66042;51.090;-115.340;2023-06-14T02:28:38;1.70;;;0.70;;
74538;SDS011;66042;51.090;-115.340;2023-06-14T02:31:05;1.40;;;0.80;;
74538;SDS011;66042;51.090;-115.340;2023-06-14T02:33:32;2.20;;;0.70;;
74538;SDS011;66042;51.090;-115.340;2023-06-14T02:35:59;2.20;;;1.10;;
74538;SDS011;66042;51.090;-115.340;2023-06-14T02:38:44;3.10;;;0.90;;
74538;SDS011;66042;51.090;-115.340;2023-06-14T02:44:20;2.30;;;0.70;;
74538;SDS011;66042;51.090;-115.340;2023-06-14T02:49:38;1.20;;;0.70;;
74538;SDS011;66042;51.090;-115.340;2023-06-14T02:52:24;1.80;;;0.70;;
74538;SDS011;66042;51.090;-115.340;2023-06-14T02:54:51;1.00;;;0.50;;
74538;SDS011;66042;51.090;-115.340;2023-06-14T02:57:18;1.80;;;0.60;;
74538;SDS011;66042;51.090;-115.340;2023-06-14T02:59:45;2.00;;;0.50;;
74538;SDS011;66042;51.090;-115.340;2023-06-14T03:02:13;1.70;;;0.50;;
74538;SDS011;66042;51.090;-115.340;2023-06-14T03:04:39;1.40;;;0.50;;
74538;SDS011;66042;51.090;-115.340;2023-06-14T03:07:26;1.90;;;0.60;;
74538;SDS011;66042;51.090;-115.340;2023-06-14T03:09:53;2.10;;;0.60;;
74538;SDS011;66042;51.090;-115.340;2023-06-14T03:12:38;2.60;;;0.50;;
74538;SDS011;66042;51.090;-115.340;2023-06-14T03:17:53;1.70;;;0.70;;
74538;SDS011;66042;51.090;-115.340;2023-06-14T03:20:20;2.00;;;0.50;;
74538;SDS011;66042;51.090;-115.340;2023-06-14T03:22:47;1.40;;;0.70;;
74538;SDS011;66042;51.090;-115.340;2023-06-14T03:25:32;2.90;;;0.50;;
74538;SDS011;66042;51.090;-115.340;2023-06-14T03:28:04;2.10;;;0.50;;
74538;SDS011;66042;51.090;-115.340;2023-06-14T03:30:31;1.80;;;0.80;;
74538;SDS011;66042;51.090;-115.340;2023-06-14T03:32:58;1.90;;;0.90;;
74538;SDS011;66042;51.090;-115.340;2023-06-14T03:35:27;3.80;;;0.40;;
74538;SDS011;66042;51.090;-115.340;2023-06-14T03:38:13;1.40;;;0.60;;
74538;SDS011;66042;51.090;-115.340;2023-06-14T03:40:41;3.30;;;0.70;;
74538;SDS011;66042;51.090;-115.340;2023-06-14T03:43:08;2.40;;;0.70;;
74538;SDS011;66042;51.090;-115.340;2023-06-14T03:45:35;2.20;;;0.60;;
74538;SDS011;66042;51.090;-115.340;2023-06-14T03:48:02;2.70;;;0.50;;
74538;SDS011;66042;51.090;-115.340;2023-06-14T03:50:47;1.70;;;0.50;;
74538;SDS011;66042;51.090;-115.340;2023-06-14T03:53:14;1.40;;;0.60;;
74538;SDS011;66042;51.090;-115.340;2023-06-14T03:55:59;1.40;;;0.70;;
74538;SDS011;66042;51.090;-115.340;2023-06-14T03:58:25;1.10;;;0.60;;
74538;SDS011;66042;51.090;-115.340;2023-06-14T04:00:54;3.50;;;0.60;;
74538;SDS011;66042;51.090;-115.340;2023-06-14T04:03:21;3.60;;;0.70;;
74538;SDS011;66042;51.090;-115.340;2023-06-14T04:05:50;1.60;;;0.60;;
74538;SDS011;66042;51.090;-115.340;2023-06-14T04:08:36;1.40;;;0.60;;
74538;SDS011;66042;51.090;-115.340;2023-06-14T04:11:05;0.90;;;0.40;;
74538;SDS011;66042;51.090;-115.340;2023-06-14T04:13:32;1.60;;;0.50;;
74538;SDS011;66042;51.090;-115.340;2023-06-14T04:16:00;1.10;;;0.30;;
74538;SDS011;66042;51.090;-115.340;2023-06-14T04:18:28;0.80;;;0.30;;
74538;SDS011;66042;51.090;-115.340;2023-06-14T04:23:41;1.00;;;0.40;;
74538;SDS011;66042;51.090;-115.340;2023-06-14T04:26:09;1.30;;;0.50;;
74538;SDS011;66042;51.090;-115.340;2023-06-14T04:28:37;1.50;;;0.60;;
74538;SDS011;66042;51.090;-115.340;2023-06-14T04:31:22;1.40;;;0.50;;
74538;SDS011;66042;51.090;-115.340;2023-06-14T04:33:52;1.10;;;0.60;;
74538;SDS011;66042;51.090;-115.340;2023-06-14T04:36:19;1.40;;;0.40;;
74538;SDS011;66042;51.090;-115.340;2023-06-14T04:38:46;2.70;;;0.50;;
74538;SDS011;66042;51.090;-115.340;2023-06-14T04:41:31;1.30;;;0.50;;
74538;SDS011;66042;51.090;-115.340;2023-06-14T04:43:59;1.60;;;0.60;;
74538;SDS011;66042;51.090;-115.340;2023-06-14T04:49:16;1.90;;;0.50;;
74538;SDS011;66042;51.090;-115.340;2023-06-14T04:51:44;1.40;;;0.50;;
74538;SDS011;66042;51.090;-115.340;2023-06-14T04:54:12;1.20;;;0.60;;
74538;SDS011;66042;51.090;-115.340;2023-06-14T04:56:40;1.00;;;0.50;;
74538;SDS011;66042;51.090;-115.340;2023-06-14T04:59:09;1.80;;;0.50;;
74538;SDS011;66042;51.090;-115.340;2023-06-14T05:01:40;1.30;;;0.30;;
74538;SDS011;66042;51.090;-115.340;2023-06-14T05:04:08;1.20;;;0.50;;
74538;SDS011;66042;51.090;-115.340;2023-06-14T05:06:35;1.60;;;0.60;;
74538;SDS011;66042;51.090;-115.340;2023-06-14T05:09:02;1.20;;;0.50;;
74538;SDS011;66042;51.090;-115.340;2023-06-14T05:11:48;1.20;;;0.60;;
74538;SDS011;66042;51.090;-115.340;2023-06-14T05:14:16;1.10;;;0.60;;
74538;SDS011;66042;51.090;-115.340;2023-06-14T05:16:44;1.10;;;0.50;;
74538;SDS011;66042;51.090;-115.340;2023-06-14T05:19:10;1.40;;;0.50;;
74538;SDS011;66042;51.090;-115.340;2023-06-14T05:21:37;1.30;;;0.60;;
74538;SDS011;66042;51.090;-115.340;2023-06-14T05:24:04;1.40;;;0.50;;
74538;SDS011;66042;51.090;-115.340;2023-06-14T05:26:31;1.20;;;0.50;;
74538;SDS011;66042;51.090;-115.340;2023-06-14T05:28:59;1.60;;;0.60;;
74538;SDS011;66042;51.090;-115.340;2023-06-14T05:31:27;0.90;;;0.40;;
74538;SDS011;66042;51.090;-115.340;2023-06-14T05:33:57;2.00;;;0.60;;
74538;SDS011;66042;51.090;-115.340;2023-06-14T05:36:24;1.20;;;0.70;;
74538;SDS011;66042;51.090;-115.340;2023-06-14T05:38:54;1.30;;;0.60;;
74538;SDS011;66042;51.090;-115.340;2023-06-14T05:41:28;1.20;;;0.50;;
74538;SDS011;66042;51.090;-115.340;2023-06-14T05:43:56;2.90;;;0.70;;
74538;SDS011;66042;51.090;-115.340;2023-06-14T05:46:24;2.40;;;0.50;;
74538;SDS011;66042;51.090;-115.340;2023-06-14T05:48:52;1.40;;;0.50;;
74538;SDS011;66042;51.090;-115.340;2023-06-14T05:54:24;1.70;;;0.50;;
74538;SDS011;66042;51.090;-115.340;2023-06-14T05:56:51;1.20;;;0.40;;
74538;SDS011;66042;51.090;-115.340;2023-06-14T05:59:18;2.10;;;0.60;;
74538;SDS011;66042;51.090;-115.340;2023-06-14T06:04:30;2.90;;;1.10;;
74538;SDS011;66042;51.090;-115.340;2023-06-14T06:07:02;1.00;;;0.50;;
74538;SDS011;66042;51.090;-115.340;2023-06-14T06:09:30;1.70;;;0.70;;
74538;SDS011;66042;51.090;-115.340;2023-06-14T06:11:57;2.40;;;0.70;;
74538;SDS011;66042;51.090;-115.340;2023-06-14T06:14:24;1.20;;;0.80;;
74538;SDS011;66042;51.090;-115.340;2023-06-14T06:16:51;1.20;;;0.40;;
74538;SDS011;66042;51.090;-115.340;2023-06-14T06:19:18;1.20;;;0.60;;
74538;SDS011;66042;51.090;-115.340;2023-06-14T06:21:45;1.60;;;0.60;;
74538;SDS011;66042;51.090;-115.340;2023-06-14T06:24:12;1.40;;;0.50;;
74538;SDS011;66042;51.090;-115.340;2023-06-14T06:26:39;1.40;;;0.70;;
74538;SDS011;66042;51.090;-115.340;2023-06-14T06:29:06;1.50;;;0.70;;
74538;SDS011;66042;51.090;-115.340;2023-06-14T06:31:33;1.50;;;0.60;;
74538;SDS011;66042;51.090;-115.340;2023-06-14T06:34:00;2.30;;;0.80;;
74538;SDS011;66042;51.090;-115.340;2023-06-14T06:36:27;1.70;;;0.80;;
74538;SDS011;66042;51.090;-115.340;2023-06-14T06:38:54;1.80;;;0.60;;
74538;SDS011;66042;51.090;-115.340;2023-06-14T06:41:39;1.20;;;0.50;;
74538;SDS011;66042;51.090;-115.340;2023-06-14T06:44:24;1.30;;;0.60;;
74538;SDS011;66042;51.090;-115.340;2023-06-14T06:46:51;1.60;;;0.70;;
74538;SDS011;66042;51.090;-115.340;2023-06-14T06:49:20;1.20;;;0.50;;
74538;SDS011;66042;51.090;-115.340;2023-06-14T06:52:00;1.30;;;0.40;;
74538;SDS011;66042;51.090;-115.340;2023-06-14T06:54:28;1.10;;;0.60;;
74538;SDS011;66042;51.090;-115.340;2023-06-14T06:56:55;1.10;;;0.50;;
74538;SDS011;66042;51.090;-115.340;2023-06-14T06:59:23;1.30;;;0.60;;
74538;SDS011;66042;51.090;-115.340;2023-06-14T07:01:53;1.30;;;0.60;;
74538;SDS011;66042;51.090;-115.340;2023-06-14T07:04:19;1.30;;;0.60;;
74538;SDS011;66042;51.090;-115.340;2023-06-14T07:07:05;1.40;;;0.50;;
74538;SDS011;66042;51.090;-115.340;2023-06-14T07:12:54;1.50;;;0.60;;
74538;SDS011;66042;51.090;-115.340;2023-06-14T07:15:21;1.80;;;0.70;;
74538;SDS011;66042;51.090;-115.340;2023-06-14T07:17:49;3.70;;;0.80;;
74538;SDS011;66042;51.090;-115.340;2023-06-14T07:20:17;1.70;;;0.90;;
74538;SDS011;66042;51.090;-115.340;2023-06-14T07:22:44;2.00;;;0.70;;
74538;SDS011;66042;51.090;-115.340;2023-06-14T07:25:11;1.70;;;0.80;;
74538;SDS011;66042;51.090;-115.340;2023-06-14T07:27:43;2.60;;;1.30;;
74538;SDS011;66042;51.090;-115.340;2023-06-14T07:30:11;2.50;;;0.90;;
74538;SDS011;66042;51.090;-115.340;2023-06-14T07:32:57;2.10;;;0.90;;
74538;SDS011;66042;51.090;-115.340;2023-06-14T07:35:24;1.50;;;0.70;;
74538;SDS011;66042;51.090;-115.340;2023-06-14T07:40:54;1.20;;;0.50;;
74538;SDS011;66042;51.090;-115.340;2023-06-14T07:43:21;1.20;;;0.40;;
74538;SDS011;66042;51.090;-115.340;2023-06-14T07:45:47;1.70;;;0.90;;
74538;SDS011;66042;51.090;-115.340;2023-06-14T07:48:15;2.20;;;0.50;;
74538;SDS011;66042;51.090;-115.340;2023-06-14T07:51:00;1.40;;;0.70;;
74538;SDS011;66042;51.090;-115.340;2023-06-14T07:53:46;1.00;;;0.50;;
74538;SDS011;66042;51.090;-115.340;2023-06-14T07:56:31;1.60;;;0.80;;
74538;SDS011;66042;51.090;-115.340;2023-06-14T07:58:59;1.50;;;0.60;;
74538;SDS011;66042;51.090;-115.340;2023-06-14T08:01:26;2.00;;;0.80;;
74538;SDS011;66042;51.090;-115.340;2023-06-14T08:03:54;2.20;;;0.50;;
74538;SDS011;66042;51.090;-115.340;2023-06-14T08:06:21;1.40;;;0.70;;
74538;SDS011;66042;51.090;-115.340;2023-06-14T08:08:48;1.60;;;0.60;;
74538;SDS011;66042;51.090;-115.340;2023-06-14T08:11:15;2.00;;;0.60;;
74538;SDS011;66042;51.090;-115.340;2023-06-14T08:13:42;1.80;;;0.50;;
74538;SDS011;66042;51.090;-115.340;2023-06-14T08:16:09;1.10;;;0.50;;
74538;SDS011;66042;51.090;-115.340;2023-06-14T08:18:36;1.30;;;0.60;;
74538;SDS011;66042;51.090;-115.340;2023-06-14T08:21:03;1.10;;;0.50;;
74538;SDS011;66042;51.090;-115.340;2023-06-14T08:23:30;2.00;;;0.40;;
74538;SDS011;66042;51.090;-115.340;2023-06-14T08:25:57;2.30;;;0.60;;
74538;SDS011;66042;51.090;-115.340;2023-06-14T08:28:24;1.40;;;0.60;;
74538;SDS011;66042;51.090;-115.340;2023-06-14T08:30:51;1.40;;;0.60;;
74538;SDS011;66042;51.090;-115.340;2023-06-14T08:33:18;1.40;;;0.60;;
74538;SDS011;66042;51.090;-115.340;2023-06-14T08:35:44;1.70;;;0.60;;
74538;SDS011;66042;51.090;-115.340;2023-06-14T08:38:11;1.40;;;0.40;;
74538;SDS011;66042;51.090;-115.340;2023-06-14T08:40:39;1.20;;;0.50;;
74538;SDS011;66042;51.090;-115.340;2023-06-14T08:43:08;1.20;;;0.50;;
74538;SDS011;66042;51.090;-115.340;2023-06-14T08:45:35;1.10;;;0.60;;
74538;SDS011;66042;51.090;-115.340;2023-06-14T08:48:02;1.10;;;0.50;;
74538;SDS011;66042;51.090;-115.340;2023-06-14T08:50:32;1.10;;;0.40;;
74538;SDS011;66042;51.090;-115.340;2023-06-14T08:53:01;1.10;;;0.50;;
74538;SDS011;66042;51.090;-115.340;2023-06-14T08:55:30;1.20;;;0.60;;
74538;SDS011;66042;51.090;-115.340;2023-06-14T08:57:58;2.80;;;0.60;;
74538;SDS011;66042;51.090;-115.340;2023-06-14T09:00:27;1.80;;;0.60;;
74538;SDS011;66042;51.090;-115.340;2023-06-14T09:02:55;1.40;;;0.40;;
74538;SDS011;66042;51.090;-115.340;2023-06-14T09:05:26;1.20;;;0.50;;
74538;SDS011;66042;51.090;-115.340;2023-06-14T09:07:54;2.30;;;0.90;;
74538;SDS011;66042;51.090;-115.340;2023-06-14T09:10:27;0.90;;;0.50;;
74538;SDS011;66042;51.090;-115.340;2023-06-14T09:12:55;1.50;;;0.40;;
74538;SDS011;66042;51.090;-115.340;2023-06-14T09:15:22;1.00;;;0.60;;
74538;SDS011;66042;51.090;-115.340;2023-06-14T09:17:49;1.40;;;0.50;;
74538;SDS011;66042;51.090;-115.340;2023-06-14T09:20:17;1.70;;;0.80;;
74538;SDS011;66042;51.090;-115.340;2023-06-14T09:22:44;0.90;;;0.50;;
74538;SDS011;66042;51.090;-115.340;2023-06-14T09:25:12;1.30;;;0.70;;
74538;SDS011;66042;51.090;-115.340;2023-06-14T09:27:41;1.50;;;0.60;;
74538;SDS011;66042;51.090;-115.340;2023-06-14T09:30:11;3.30;;;0.60;;
74538;SDS011;66042;51.090;-115.340;2023-06-14T09:32:39;1.30;;;0.70;;
74538;SDS011;66042;51.090;-115.340;2023-06-14T09:35:07;1.10;;;0.70;;
74538;SDS011;66042;51.090;-115.340;2023-06-14T09:37:35;1.60;;;0.70;;
74538;SDS011;66042;51.090;-115.340;2023-06-14T09:40:08;1.50;;;0.50;;
74538;SDS011;66042;51.090;-115.340;2023-06-14T09:42:35;1.70;;;0.60;;
74538;SDS011;66042;51.090;-115.340;2023-06-14T09:45:03;2.10;;;0.70;;
74538;SDS011;66042;51.090;-115.340;2023-06-14T09:47:31;3.90;;;0.70;;
74538;SDS011;66042;51.090;-115.340;2023-06-14T09:49:59;1.90;;;0.70;;
74538;SDS011;66042;51.090;-115.340;2023-06-14T09:52:26;2.30;;;0.60;;
74538;SDS011;66042;51.090;-115.340;2023-06-14T09:54:55;1.60;;;0.60;;
74538;SDS011;66042;51.090;-115.340;2023-06-14T09:57:25;2.80;;;0.70;;
74538;SDS011;66042;51.090;-115.340;2023-06-14T09:59:57;2.00;;;0.70;;
74538;SDS011;66042;51.090;-115.340;2023-06-14T10:02:31;1.30;;;0.40;;
74538;SDS011;66042;51.090;-115.340;2023-06-14T10:07:53;2.10;;;0.50;;
74538;SDS011;66042;51.090;-115.340;2023-06-14T10:10:48;1.30;;;0.60;;
74538;SDS011;66042;51.090;-115.340;2023-06-14T10:13:16;1.20;;;0.60;;
74538;SDS011;66042;51.090;-115.340;2023-06-14T10:24:12;2.30;;;0.70;;
74538;SDS011;66042;51.090;-115.340;2023-06-14T10:26:56;1.10;;;0.50;;
74538;SDS011;66042;51.090;-115.340;2023-06-14T10:29:26;1.30;;;0.60;;
74538;SDS011;66042;51.090;-115.340;2023-06-14T10:31:59;2.30;;;0.70;;
74538;SDS011;66042;51.090;-115.340;2023-06-14T10:34:28;1.30;;;0.60;;
74538;SDS011;66042;51.090;-115.340;2023-06-14T10:37:13;2.50;;;0.90;;
74538;SDS011;66042;51.090;-115.340;2023-06-14T10:39:44;1.30;;;0.70;;
74538;SDS011;66042;51.090;-115.340;2023-06-14T10:42:13;1.30;;;0.50;;
74538;SDS011;66042;51.090;-115.340;2023-06-14T10:44:45;1.30;;;0.40;;
74538;SDS011;66042;51.090;-115.340;2023-06-14T10:47:21;1.10;;;0.50;;
74538;SDS011;66042;51.090;-115.340;2023-06-14T10:49:51;1.30;;;0.70;;
74538;SDS011;66042;51.090;-115.340;2023-06-14T10:52:25;1.80;;;0.70;;
74538;SDS011;66042;51.090;-115.340;2023-06-14T10:55:09;1.10;;;0.50;;
74538;SDS011;66042;51.090;-115.340;2023-06-14T10:57:50;2.50;;;0.50;;
74538;SDS011;66042;51.090;-115.340;2023-06-14T11:00:22;1.50;;;0.80;;
74538;SDS011;66042;51.090;-115.340;2023-06-14T11:11:42;3.90;;;0.80;;
74538;SDS011;66042;51.090;-115.340;2023-06-14T11:14:10;3.10;;;0.70;;
74538;SDS011;66042;51.090;-115.340;2023-06-14T11:16:37;1.30;;;0.70;;
74538;SDS011;66042;51.090;-115.340;2023-06-14T11:19:04;1.10;;;0.60;;
74538;SDS011;66042;51.090;-115.340;2023-06-14T11:21:40;2.60;;;0.70;;
74538;SDS011;66042;51.090;-115.340;2023-06-14T11:24:10;1.50;;;0.60;;
74538;SDS011;66042;51.090;-115.340;2023-06-14T11:26:38;1.50;;;0.50;;
74538;SDS011;66042;51.090;-115.340;2023-06-14T11:29:04;1.60;;;0.80;;
74538;SDS011;66042;51.090;-115.340;2023-06-14T11:31:31;2.00;;;0.80;;
74538;SDS011;66042;51.090;-115.340;2023-06-14T11:33:59;1.90;;;1.00;;
74538;SDS011;66042;51.090;-115.340;2023-06-14T11:36:31;1.60;;;0.60;;
74538;SDS011;66042;51.090;-115.340;2023-06-14T11:39:01;1.50;;;0.60;;
74538;SDS011;66042;51.090;-115.340;2023-06-14T11:41:58;1.40;;;0.70;;
74538;SDS011;66042;51.090;-115.340;2023-06-14T11:44:27;2.50;;;0.60;;
74538;SDS011;66042;51.090;-115.340;2023-06-14T11:46:54;1.70;;;0.60;;
74538;SDS011;66042;51.090;-115.340;2023-06-14T11:49:24;2.10;;;0.70;;
74538;SDS011;66042;51.090;-115.340;2023-06-14T11:51:53;1.60;;;0.70;;
74538;SDS011;66042;51.090;-115.340;2023-06-14T11:54:21;2.10;;;0.70;;
74538;SDS011;66042;51.090;-115.340;2023-06-14T11:56:48;1.50;;;0.70;;
74538;SDS011;66042;51.090;-115.340;2023-06-14T11:59:15;2.00;;;0.80;;
74538;SDS011;66042;51.090;-115.340;2023-06-14T12:01:43;2.60;;;0.60;;
74538;SDS011;66042;51.090;-115.340;2023-06-14T12:04:11;2.10;;;0.80;;
74538;SDS011;66042;51.090;-115.340;2023-06-14T12:06:38;2.10;;;0.90;;
74538;SDS011;66042;51.090;-115.340;2023-06-14T12:09:06;3.20;;;0.90;;
74538;SDS011;66042;51.090;-115.340;2023-06-14T12:11:38;3.00;;;1.00;;
74538;SDS011;66042;51.090;-115.340;2023-06-14T12:14:07;3.00;;;0.90;;
74538;SDS011;66042;51.090;-115.340;2023-06-14T12:16:37;2.60;;;0.80;;
74538;SDS011;66042;51.090;-115.340;2023-06-14T12:19:16;2.30;;;1.30;;
74538;SDS011;66042;51.090;-115.340;2023-06-14T12:21:46;3.60;;;1.10;;
74538;SDS011;66042;51.090;-115.340;2023-06-14T12:24:17;2.50;;;1.30;;
74538;SDS011;66042;51.090;-115.340;2023-06-14T12:26:44;2.10;;;1.20;;
74538;SDS011;66042;51.090;-115.340;2023-06-14T12:29:12;4.40;;;1.10;;
74538;SDS011;66042;51.090;-115.340;2023-06-14T12:31:40;2.30;;;1.10;;
74538;SDS011;66042;51.090;-115.340;2023-06-14T12:34:07;3.40;;;1.40;;
74538;SDS011;66042;51.090;-115.340;2023-06-14T12:36:34;2.00;;;1.20;;
74538;SDS011;66042;51.090;-115.340;2023-06-14T12:39:08;4.60;;;1.20;;
74538;SDS011;66042;51.090;-115.340;2023-06-14T12:41:35;1.70;;;0.90;;
74538;SDS011;66042;51.090;-115.340;2023-06-14T12:44:02;2.60;;;1.20;;
74538;SDS011;66042;51.090;-115.340;2023-06-14T12:46:33;4.60;;;1.40;;
74538;SDS011;66042;51.090;-115.340;2023-06-14T12:49:07;2.60;;;0.90;;
74538;SDS011;66042;51.090;-115.340;2023-06-14T12:51:34;4.30;;;1.40;;
74538;SDS011;66042;51.090;-115.340;2023-06-14T12:54:02;2.50;;;0.90;;
74538;SDS011;66042;51.090;-115.340;2023-06-14T12:56:28;2.70;;;1.20;;
74538;SDS011;66042;51.090;-115.340;2023-06-14T12:58:56;5.60;;;1.30;;
74538;SDS011;66042;51.090;-115.340;2023-06-14T13:01:22;3.20;;;0.90;;
74538;SDS011;66042;51.090;-115.340;2023-06-14T13:03:49;4.80;;;1.10;;
74538;SDS011;66042;51.090;-115.340;2023-06-14T13:06:17;2.40;;;1.00;;
74538;SDS011;66042;51.090;-115.340;2023-06-14T13:08:44;2.10;;;1.10;;
74538;SDS011;66042;51.090;-115.340;2023-06-14T13:11:12;2.40;;;1.10;;
74538;SDS011;66042;51.090;-115.340;2023-06-14T13:13:39;4.10;;;1.20;;
74538;SDS011;66042;51.090;-115.340;2023-06-14T13:16:06;5.20;;;0.90;;
74538;SDS011;66042;51.090;-115.340;2023-06-14T13:18:33;4.50;;;1.20;;
74538;SDS011;66042;51.090;-115.340;2023-06-14T13:21:01;1.90;;;0.80;;
74538;SDS011;66042;51.090;-115.340;2023-06-14T13:23:27;3.10;;;0.90;;
74538;SDS011;66042;51.090;-115.340;2023-06-14T13:25:54;3.00;;;0.70;;
74538;SDS011;66042;51.090;-115.340;2023-06-14T13:28:21;2.70;;;0.70;;
74538;SDS011;66042;51.090;-115.340;2023-06-14T13:30:48;3.10;;;0.60;;
74538;SDS011;66042;51.090;-115.340;2023-06-14T13:33:15;1.90;;;0.70;;
74538;SDS011;66042;51.090;-115.340;2023-06-14T13:35:42;2.70;;;0.60;;
74538;SDS011;66042;51.090;-115.340;2023-06-14T13:38:10;1.40;;;0.60;;
74538;SDS011;66042;51.090;-115.340;2023-06-14T13:40:36;2.50;;;0.40;;
74538;SDS011;66042;51.090;-115.340;2023-06-14T13:43:03;3.10;;;0.60;;
74538;SDS011;66042;51.090;-115.340;2023-06-14T13:45:31;1.90;;;0.60;;
74538;SDS011;66042;51.090;-115.340;2023-06-14T13:47:57;3.80;;;0.50;;
74538;SDS011;66042;51.090;-115.340;2023-06-14T13:50:24;2.60;;;0.80;;
74538;SDS011;66042;51.090;-115.340;2023-06-14T13:52:51;1.50;;;0.40;;
74538;SDS011;66042;51.090;-115.340;2023-06-14T13:55:19;3.50;;;0.50;;
74538;SDS011;66042;51.090;-115.340;2023-06-14T13:57:46;2.70;;;0.50;;
74538;SDS011;66042;51.090;-115.340;2023-06-14T14:00:13;2.40;;;0.50;;
74538;SDS011;66042;51.090;-115.340;2023-06-14T14:02:40;2.80;;;0.50;;
74538;SDS011;66042;51.090;-115.340;2023-06-14T14:05:08;6.60;;;0.90;;
74538;SDS011;66042;51.090;-115.340;2023-06-14T14:07:35;4.60;;;0.60;;
74538;SDS011;66042;51.090;-115.340;2023-06-14T14:10:03;2.70;;;0.80;;
74538;SDS011;66042;51.090;-115.340;2023-06-14T14:12:31;4.00;;;0.80;;
74538;SDS011;66042;51.090;-115.340;2023-06-14T14:14:58;2.40;;;0.80;;
74538;SDS011;66042;51.090;-115.340;2023-06-14T14:17:24;1.90;;;1.10;;
74538;SDS011;66042;51.090;-115.340;2023-06-14T14:19:51;1.40;;;0.60;;
74538;SDS011;66042;51.090;-115.340;2023-06-14T14:22:18;3.60;;;0.60;;
74538;SDS011;66042;51.090;-115.340;2023-06-14T14:24:45;1.80;;;0.70;;
74538;SDS011;66042;51.090;-115.340;2023-06-14T14:27:12;3.40;;;0.50;;
74538;SDS011;66042;51.090;-115.340;2023-06-14T14:29:40;3.60;;;0.50;;
74538;SDS011;66042;51.090;-115.340;2023-06-14T14:32:07;3.50;;;0.50;;
74538;SDS011;66042;51.090;-115.340;2023-06-14T14:34:39;1.60;;;0.60;;
74538;SDS011;66042;51.090;-115.340;2023-06-14T14:37:06;1.20;;;0.40;;
74538;SDS011;66042;51.090;-115.340;2023-06-14T14:39:33;2.30;;;0.40;;
74538;SDS011;66042;51.090;-115.340;2023-06-14T14:42:00;1.60;;;0.50;;
74538;SDS011;66042;51.090;-115.340;2023-06-14T14:44:27;0.90;;;0.40;;
74538;SDS011;66042;51.090;-115.340;2023-06-14T14:46:54;1.30;;;0.50;;
74538;SDS011;66042;51.090;-115.340;2023-06-14T14:49:21;1.50;;;0.60;;
74538;SDS011;66042;51.090;-115.340;2023-06-14T14:51:48;2.30;;;0.40;;
74538;SDS011;66042;51.090;-115.340;2023-06-14T14:54:15;1.10;;;0.50;;
74538;SDS011;66042;51.090;-115.340;2023-06-14T14:56:42;1.10;;;0.40;;
74538;SDS011;66042;51.090;-115.340;2023-06-14T14:59:09;2.20;;;0.50;;
74538;SDS011;66042;51.090;-115.340;2023-06-14T15:01:36;2.20;;;0.50;;
74538;SDS011;66042;51.090;-115.340;2023-06-14T15:04:03;1.40;;;0.40;;
74538;SDS011;66042;51.090;-115.340;2023-06-14T15:06:30;1.60;;;0.40;;
74538;SDS011;66042;51.090;-115.340;2023-06-14T15:08:57;3.20;;;0.50;;
74538;SDS011;66042;51.090;-115.340;2023-06-14T15:11:24;1.30;;;0.50;;
74538;SDS011;66042;51.090;-115.340;2023-06-14T15:13:51;1.30;;;0.50;;
74538;SDS011;66042;51.090;-115.340;2023-06-14T15:16:19;2.90;;;0.50;;